Flight Track Log - Related Links

Times and Time Zones

All times are in EDT time to prevent confusion due to time zone crossing. See the UAL4305 flight status page for this flight to view local times or setup timezone preferences in your user account.

Time Position Orientation Groundspeed Altitude Reporting Facility
EDT Latitude Longitude Course Direction KTS MPH feet Rate Location/Type
Sat 08:11:20 AM 30.5686 -96.3564 164° South 192 221 1,400  Level Houston Center
Sat 08:12:21 AM 30.5192 -96.3400 164° South 181 208 4,100 2,410 Climbing Houston Center
Sat 08:13:17 AM 30.4931 -96.2875 120° Southeast 219 252 6,100 2,359 Climbing Houston Center
Sat 08:14:18 AM 30.4572 -96.2144 120° Southeast 251 289 8,700 1,934 Climbing Houston Center
Sat 08:15:18 AM 30.4156 -96.1317 120° Southeast 281 323 10,000 645 Climbing Houston Center
Sat 08:16:19 AM 30.3664 -96.0300 119° Southeast 350 403 10,000  Level Houston Center
Sat 08:17:21 AM 30.3178 -95.9322 120° Southeast 353 406 10,000  Level Houston Center
Sat 08:18:22 AM 30.2683 -95.8306 119° Southeast 358 412 10,000 -50 Level Houston Center
Sat 08:19:22 AM 30.2175 -95.7281 120° Southeast 364 419 9,900 -49 Descending Houston Center
Sat 08:20:24 AM 30.1628 -95.6164 120° Southeast 338 389 9,900 -829 Level Houston Center
Sat 08:21:25 AM 30.1256 -95.5419 120° Southeast 273 314 8,200 -1,377 Descending Houston Center
Sat 08:22:26 AM 30.1064 -95.4608 105° East 265 305 7,100 -1,033 Descending Houston Center
Sat 08:23:27 AM 30.1061 -95.3786 90° East 256 295 6,100 -541 Descending Houston Center
Sat 08:24:28 AM 30.1061 -95.2969 90° East 256 295 6,000 -934 Descending Houston Center
Sat 08:25:29 AM 30.0958 -95.2261 100° East 219 252 4,200 -1,721 Descending Houston Center
Sat 08:26:30 AM 30.0494 -95.1933 149° Southeast 213 245 2,500 -1,131 Descending Houston Center
Sat 08:27:31 AM 30.0058 -95.2256 213° Southwest 212 244 1,900 -787 Descending Houston Center
Sat 08:28:32 AM 29.9933 -95.2742 253° West 159 183 900 -836 Descending Houston Center
Sat 08:29:33 AM 29.9944 -95.3192 272° West 144 166 200 -689 Descending Houston Center
Sat 08:31:00 AM 29.9833 -95.3333 131° Southeast  Level FlightAware Approximate

Login

Don't have an account? Register now (free) for customized features, flight alerts, and more!